createdAt,value
2022-09-26T00:01:16.686Z,12.80
2022-09-26T00:03:45.590Z,12.80
2022-09-26T00:06:12.894Z,12.80
2022-09-26T00:08:40.505Z,12.80
2022-09-26T00:11:09.206Z,12.80
2022-09-26T00:13:38.147Z,12.80
2022-09-26T00:16:05.781Z,12.80
2022-09-26T00:18:32.928Z,12.80
2022-09-26T00:21:04.452Z,12.80
2022-09-26T00:23:31.395Z,12.70
2022-09-26T00:26:00.967Z,12.80
2022-09-26T00:28:28.880Z,12.80
2022-09-26T00:30:56.746Z,12.90
2022-09-26T00:33:24.288Z,12.90
2022-09-26T00:35:52.504Z,12.90
2022-09-26T00:38:19.588Z,12.90
2022-09-26T00:40:47.546Z,12.90
2022-09-26T00:43:43.430Z,12.90
2022-09-26T00:46:32.651Z,12.90
2022-09-26T00:49:24.008Z,12.90
2022-09-26T00:51:56.221Z,13.00
2022-09-26T00:54:24.017Z,12.90
2022-09-26T00:56:53.744Z,13.00
2022-09-26T00:59:27.234Z,13.00
2022-09-26T01:01:56.280Z,12.90
2022-09-26T01:04:26.040Z,13.00
2022-09-26T01:06:53.600Z,12.90
2022-09-26T01:09:20.888Z,12.90
2022-09-26T01:11:48.095Z,12.90
2022-09-26T01:14:15.837Z,12.90
2022-09-26T01:16:48.044Z,12.90
2022-09-26T01:19:29.541Z,12.90
2022-09-26T01:21:59.374Z,12.90
2022-09-26T01:24:28.815Z,12.90
2022-09-26T01:27:17.287Z,12.90
2022-09-26T01:30:07.860Z,12.90
2022-09-26T01:33:00.851Z,13.00
2022-09-26T01:35:36.580Z,13.00
2022-09-26T01:38:31.859Z,13.00
2022-09-26T01:41:21.409Z,12.90
2022-09-26T01:44:26.669Z,12.90
2022-09-26T01:47:32.509Z,12.90
2022-09-26T01:50:34.966Z,12.90
2022-09-26T01:53:20.848Z,12.80
2022-09-26T01:55:54.606Z,12.70
2022-09-26T01:58:30.977Z,12.70
2022-09-26T02:01:02.648Z,12.70
2022-09-26T02:03:35.473Z,12.70
2022-09-26T02:06:12.622Z,12.60
2022-09-26T02:08:43.972Z,12.60
2022-09-26T02:11:13.810Z,12.60
2022-09-26T02:13:51.863Z,12.60
2022-09-26T02:16:30.005Z,12.50
2022-09-26T02:19:26.003Z,12.60
2022-09-26T02:21:53.920Z,12.70
2022-09-26T02:24:22.232Z,12.70
2022-09-26T02:26:50.721Z,12.80
2022-09-26T02:29:17.942Z,12.70
2022-09-26T02:32:12.796Z,12.60
2022-09-26T02:34:45.019Z,12.70
2022-09-26T02:37:13.468Z,12.70
2022-09-26T02:39:42.599Z,12.70
2022-09-26T02:42:40.145Z,12.60
2022-09-26T02:45:34.268Z,12.60
2022-09-26T02:48:28.174Z,12.60
2022-09-26T02:51:24.586Z,12.50
2022-09-26T02:54:26.038Z,12.50
2022-09-26T02:57:11.694Z,12.60
2022-09-26T03:00:04.829Z,12.50
2022-09-26T03:02:50.494Z,12.50
2022-09-26T03:05:24.254Z,12.40
2022-09-26T03:08:01.003Z,12.30
2022-09-26T03:10:30.501Z,12.30
2022-09-26T03:13:06.524Z,12.20
2022-09-26T03:15:35.677Z,12.30
2022-09-26T03:18:06.517Z,12.30
2022-09-26T03:20:33.247Z,12.30
2022-09-26T03:23:02.066Z,12.30
2022-09-26T03:25:28.919Z,12.20
2022-09-26T03:27:56.152Z,12.30
2022-09-26T03:30:23.465Z,12.30
2022-09-26T03:32:50.329Z,12.20
2022-09-26T03:35:17.209Z,12.20
2022-09-26T03:37:44.004Z,12.20
2022-09-26T03:40:12.441Z,12.20
2022-09-26T03:42:39.299Z,12.20
2022-09-26T03:45:09.304Z,12.20
2022-09-26T03:47:38.336Z,12.20
2022-09-26T03:50:06.604Z,12.30
2022-09-26T03:52:33.776Z,12.30
2022-09-26T03:55:00.584Z,12.40
2022-09-26T03:57:27.379Z,12.40
2022-09-26T03:59:55.233Z,12.40
2022-09-26T04:02:22.636Z,12.40
2022-09-26T04:04:49.547Z,12.40
2022-09-26T04:07:16.455Z,12.30
2022-09-26T04:09:43.173Z,12.20
2022-09-26T04:12:09.916Z,12.20
2022-09-26T04:14:36.741Z,12.20
2022-09-26T04:17:03.502Z,12.20
2022-09-26T04:19:30.278Z,12.10
2022-09-26T04:21:57.215Z,12.10
2022-09-26T04:24:23.976Z,12.20
2022-09-26T04:26:50.742Z,12.30
2022-09-26T04:29:17.571Z,12.30
2022-09-26T04:31:44.344Z,12.40
2022-09-26T04:34:11.575Z,12.20
2022-09-26T04:36:38.591Z,12.20
2022-09-26T04:39:05.677Z,12.10
2022-09-26T04:41:32.534Z,12.00
2022-09-26T04:44:01.117Z,12.00
2022-09-26T04:46:30.983Z,12.10
2022-09-26T04:48:59.584Z,12.00
2022-09-26T04:51:27.718Z,12.10
2022-09-26T04:53:54.492Z,12.00
2022-09-26T04:56:22.686Z,11.90
2022-09-26T04:58:50.044Z,11.80
2022-09-26T05:01:21.514Z,11.70
2022-09-26T05:03:48.707Z,11.60
2022-09-26T05:06:17.698Z,11.70
2022-09-26T05:08:46.851Z,11.60
2022-09-26T05:11:16.263Z,11.60
2022-09-26T05:13:43.780Z,11.70
2022-09-26T05:16:12.446Z,11.90
2022-09-26T05:18:39.555Z,12.00
2022-09-26T05:21:07.580Z,12.10
2022-09-26T05:23:54.241Z,12.00
2022-09-26T05:26:28.429Z,12.00
2022-09-26T05:29:06.856Z,11.70
2022-09-26T05:31:37.918Z,11.80
2022-09-26T05:34:07.634Z,11.80
2022-09-26T05:36:34.734Z,11.70
2022-09-26T05:39:01.782Z,11.80
2022-09-26T05:41:30.095Z,11.80
2022-09-26T05:43:57.246Z,11.70
2022-09-26T05:46:25.844Z,11.80
2022-09-26T05:48:52.772Z,11.90
2022-09-26T05:51:21.634Z,11.90
2022-09-26T05:53:49.560Z,11.80
2022-09-26T05:56:19.618Z,11.90
2022-09-26T05:58:47.274Z,11.80
2022-09-26T06:01:16.744Z,11.90
2022-09-26T06:03:47.498Z,12.00
2022-09-26T06:06:19.035Z,12.00
2022-09-26T06:08:46.929Z,12.10
2022-09-26T06:11:16.422Z,12.40
2022-09-26T06:13:45.891Z,12.50
2022-09-26T06:16:15.916Z,12.40
2022-09-26T06:18:42.766Z,12.40
2022-09-26T06:21:11.700Z,12.30
2022-09-26T06:23:38.759Z,12.30
2022-09-26T06:26:11.134Z,12.40
2022-09-26T06:28:39.014Z,12.50
2022-09-26T06:31:13.454Z,12.60
2022-09-26T06:33:40.567Z,12.70
2022-09-26T06:36:09.985Z,12.60
2022-09-26T06:38:38.062Z,12.50
2022-09-26T06:41:07.450Z,12.50
2022-09-26T06:43:34.583Z,12.50
2022-09-26T06:46:01.587Z,12.60
2022-09-26T06:48:28.442Z,12.60
2022-09-26T06:51:00.374Z,12.60
2022-09-26T06:53:27.965Z,12.70
2022-09-26T06:55:55.012Z,12.60
2022-09-26T06:58:21.921Z,12.60
2022-09-26T07:00:48.822Z,12.50
2022-09-26T07:03:15.956Z,12.50
2022-09-26T07:05:44.882Z,12.60
2022-09-26T07:08:11.917Z,12.60
2022-09-26T07:10:38.834Z,12.50
2022-09-26T07:13:07.449Z,12.50
2022-09-26T07:15:36.110Z,12.60
2022-09-26T07:18:04.968Z,12.70
2022-09-26T07:20:34.429Z,12.80
2022-09-26T07:23:04.926Z,12.70
2022-09-26T07:25:32.173Z,12.80
2022-09-26T07:27:59.442Z,12.90
2022-09-26T07:30:26.609Z,12.70
2022-09-26T07:32:56.949Z,12.70
2022-09-26T07:35:24.885Z,12.80
2022-09-26T07:37:52.992Z,12.80
2022-09-26T07:40:22.742Z,12.80
2022-09-26T07:43:04.261Z,12.80
2022-09-26T07:45:55.321Z,12.70
2022-09-26T07:48:40.937Z,12.90
2022-09-26T07:51:11.379Z,13.00
2022-09-26T07:53:41.145Z,13.10
2022-09-26T07:56:11.265Z,13.00
2022-09-26T07:58:42.339Z,13.10
2022-09-26T08:01:16.713Z,13.00
2022-09-26T08:03:50.115Z,13.00
2022-09-26T08:06:21.030Z,13.10
2022-09-26T08:08:48.273Z,13.20
2022-09-26T08:11:17.593Z,13.20
2022-09-26T08:13:45.295Z,13.20
2022-09-26T08:16:14.728Z,13.30
2022-09-26T08:18:41.639Z,13.40
2022-09-26T08:21:08.494Z,13.40
2022-09-26T08:23:35.604Z,13.40
2022-09-26T08:26:07.169Z,13.50
2022-09-26T08:28:38.475Z,13.70
2022-09-26T08:31:06.653Z,13.70
2022-09-26T08:33:35.432Z,13.80
2022-09-26T08:36:07.090Z,13.90
2022-09-26T08:38:35.443Z,14.00
2022-09-26T08:41:14.133Z,14.10
2022-09-26T08:43:57.798Z,14.20
2022-09-26T08:46:55.335Z,14.60
2022-09-26T08:49:24.914Z,14.70
2022-09-26T08:51:58.819Z,15.00
2022-09-26T08:54:45.086Z,15.20
2022-09-26T08:57:26.798Z,15.20
2022-09-26T08:59:54.628Z,15.40
2022-09-26T09:02:21.418Z,15.60
2022-09-26T09:05:26.806Z,16.00
2022-09-26T09:07:56.738Z,16.40
2022-09-26T09:10:44.351Z,16.60
2022-09-26T09:13:18.748Z,16.80
2022-09-26T09:16:21.866Z,16.80
2022-09-26T09:18:48.553Z,16.80
2022-09-26T09:21:32.122Z,16.70
2022-09-26T09:24:21.146Z,16.80
2022-09-26T09:29:49.161Z,16.80
2022-09-26T09:32:22.200Z,16.70
2022-09-26T09:34:53.685Z,16.60
2022-09-26T09:37:28.568Z,16.40
2022-09-26T09:39:56.980Z,16.30
2022-09-26T09:42:34.059Z,16.30
2022-09-26T09:45:03.401Z,16.40
2022-09-26T09:47:30.504Z,16.40
2022-09-26T09:49:59.763Z,16.50
2022-09-26T09:52:32.234Z,16.60
2022-09-26T09:55:29.714Z,16.70
2022-09-26T09:58:20.537Z,16.70
2022-09-26T10:01:01.982Z,17.00
2022-09-26T10:03:49.034Z,17.00
2022-09-26T10:06:44.681Z,17.10
2022-09-26T10:09:35.318Z,17.20
2022-09-26T10:12:28.903Z,17.10
2022-09-26T10:15:07.608Z,17.10
2022-09-26T10:17:35.451Z,17.30
2022-09-26T10:20:02.369Z,17.50
2022-09-26T10:22:37.948Z,17.50
2022-09-26T10:25:21.743Z,17.50
2022-09-26T10:27:53.410Z,17.90
2022-09-26T10:30:31.941Z,18.20
2022-09-26T10:33:00.570Z,18.40
2022-09-26T10:35:40.224Z,18.60
2022-09-26T10:38:18.479Z,18.80
2022-09-26T10:40:54.817Z,19.20
2022-09-26T10:43:30.865Z,19.60
2022-09-26T10:46:13.657Z,19.70
2022-09-26T10:48:56.355Z,20.00
2022-09-26T10:51:29.818Z,20.40
2022-09-26T10:54:04.872Z,20.40
2022-09-26T10:56:37.061Z,20.30
2022-09-26T10:59:07.469Z,19.90
2022-09-26T11:01:39.189Z,19.50
2022-09-26T11:04:40.097Z,19.30
2022-09-26T11:07:10.829Z,19.60
2022-09-26T11:09:38.437Z,19.90
2022-09-26T11:12:26.558Z,20.00
2022-09-26T11:14:57.570Z,19.80
2022-09-26T11:17:45.326Z,19.60
2022-09-26T11:20:50.591Z,19.60
2022-09-26T11:23:44.869Z,19.20
2022-09-26T11:26:18.133Z,19.30
2022-09-26T11:29:02.149Z,19.30
2022-09-26T11:31:34.486Z,19.20
2022-09-26T11:34:04.448Z,19.30
2022-09-26T11:36:36.959Z,19.70
2022-09-26T11:39:33.694Z,19.20
2022-09-26T11:42:25.909Z,18.80
2022-09-26T11:45:04.653Z,18.80
2022-09-26T11:47:43.288Z,19.00
2022-09-26T11:50:35.595Z,19.00
2022-09-26T11:53:20.511Z,18.90
2022-09-26T11:56:19.418Z,18.80
2022-09-26T11:59:02.232Z,18.80
2022-09-26T12:01:55.141Z,18.80
2022-09-26T12:04:30.986Z,18.80
2022-09-26T12:07:03.668Z,18.80
2022-09-26T12:09:59.733Z,18.70
2022-09-26T12:12:28.134Z,18.70
2022-09-26T12:15:32.392Z,18.60
2022-09-26T12:18:17.641Z,18.80
2022-09-26T12:21:12.308Z,18.50
2022-09-26T12:23:52.167Z,18.50
2022-09-26T12:26:51.767Z,18.50
2022-09-26T12:29:48.568Z,18.40
2022-09-26T12:32:27.637Z,18.30
2022-09-26T12:35:08.034Z,18.10
2022-09-26T12:37:57.171Z,18.30
2022-09-26T12:40:40.589Z,18.40
2022-09-26T12:43:15.940Z,18.40
2022-09-26T12:46:01.458Z,18.40
2022-09-26T12:48:49.878Z,18.60
2022-09-26T12:51:47.258Z,18.70
2022-09-26T12:54:16.755Z,18.70
2022-09-26T12:57:13.308Z,18.70
2022-09-26T13:00:00.149Z,18.90
2022-09-26T13:02:51.378Z,19.00
2022-09-26T13:05:51.653Z,19.20
2022-09-26T13:08:57.318Z,19.20
2022-09-26T13:11:43.372Z,18.90
2022-09-26T13:14:35.009Z,18.80
2022-09-26T13:17:16.789Z,18.80
2022-09-26T13:19:59.519Z,19.00
2022-09-26T13:22:41.387Z,18.90
2022-09-26T13:25:21.877Z,18.90
2022-09-26T13:27:58.482Z,18.80
2022-09-26T13:30:35.194Z,18.80
2022-09-26T13:33:42.907Z,18.70
2022-09-26T13:36:11.066Z,18.60
2022-09-26T13:38:47.262Z,18.50
2022-09-26T13:41:26.196Z,18.30
2022-09-26T13:44:17.852Z,18.20
2022-09-26T13:47:13.161Z,18.30
2022-09-26T13:50:14.989Z,18.30
2022-09-26T13:52:52.493Z,18.20
2022-09-26T13:55:21.841Z,18.10
2022-09-26T13:58:09.329Z,17.80
2022-09-26T14:00:40.544Z,17.70
2022-09-26T14:03:10.440Z,17.70
2022-09-26T14:05:43.660Z,17.60
2022-09-26T14:08:44.151Z,17.70
2022-09-26T14:11:19.888Z,17.60
2022-09-26T14:13:48.619Z,17.50
2022-09-26T14:16:27.743Z,17.30
2022-09-26T14:19:06.541Z,17.00
2022-09-26T14:21:33.459Z,17.10
2022-09-26T14:24:28.366Z,17.10
2022-09-26T14:27:24.074Z,17.00
2022-09-26T14:30:08.020Z,16.80
2022-09-26T14:32:39.785Z,16.80
2022-09-26T14:35:34.685Z,16.70
2022-09-26T14:38:13.501Z,16.50
2022-09-26T14:40:55.970Z,16.50
2022-09-26T14:43:27.768Z,16.60
2022-09-26T14:46:19.602Z,16.50
2022-09-26T14:48:46.841Z,16.50
2022-09-26T14:51:16.444Z,16.50
2022-09-26T14:53:49.224Z,16.40
2022-09-26T14:56:41.260Z,16.40
2022-09-26T14:59:35.058Z,16.40
2022-09-26T15:02:14.471Z,16.30
2022-09-26T15:04:43.558Z,16.20
2022-09-26T15:07:35.979Z,16.20
2022-09-26T15:10:35.385Z,16.10
2022-09-26T15:13:22.730Z,16.10
2022-09-26T15:16:27.766Z,16.00
2022-09-26T15:19:09.722Z,16.00
2022-09-26T15:21:48.201Z,16.10
2022-09-26T15:24:33.235Z,16.00
2022-09-26T15:27:11.548Z,15.90
2022-09-26T15:30:16.024Z,15.80
2022-09-26T15:32:43.575Z,15.80
2022-09-26T15:35:13.578Z,15.80
2022-09-26T15:37:41.384Z,15.80
2022-09-26T15:40:18.681Z,15.70
2022-09-26T15:43:08.032Z,15.60
2022-09-26T15:45:47.756Z,15.60
2022-09-26T15:48:20.753Z,15.50
2022-09-26T15:50:56.118Z,15.50
2022-09-26T15:53:39.613Z,15.50
2022-09-26T15:56:16.840Z,15.50
2022-09-26T15:58:49.215Z,15.50
2022-09-26T16:01:19.195Z,15.50
2022-09-26T16:04:21.076Z,15.50
2022-09-26T16:07:14.057Z,15.30
2022-09-26T16:09:44.011Z,15.40
2022-09-26T16:12:17.201Z,15.50
2022-09-26T16:15:07.980Z,15.40
2022-09-26T16:17:36.354Z,15.40
2022-09-26T16:20:15.293Z,15.30
2022-09-26T16:22:49.036Z,15.30
2022-09-26T16:25:15.753Z,15.20
2022-09-26T16:27:42.987Z,15.20
2022-09-26T16:30:23.905Z,15.10
2022-09-26T16:32:52.846Z,15.00
2022-09-26T16:35:30.626Z,15.00
2022-09-26T16:38:03.072Z,15.00
2022-09-26T16:40:31.503Z,15.00
2022-09-26T16:43:08.072Z,14.90
2022-09-26T16:45:34.980Z,14.90
2022-09-26T16:48:01.984Z,14.90
2022-09-26T16:50:34.059Z,15.00
2022-09-26T16:53:03.000Z,14.90
2022-09-26T16:55:34.379Z,14.90
2022-09-26T16:58:04.448Z,14.90
2022-09-26T17:00:52.834Z,14.90
2022-09-26T17:03:27.381Z,14.80
2022-09-26T17:05:55.876Z,14.90
2022-09-26T17:08:23.559Z,14.80
2022-09-26T17:10:50.480Z,14.70
2022-09-26T17:13:24.190Z,14.70
2022-09-26T17:15:55.562Z,14.70
2022-09-26T17:18:33.367Z,14.60
2022-09-26T17:21:01.235Z,14.60
2022-09-26T17:23:44.582Z,14.70
2022-09-26T17:26:19.786Z,14.70
2022-09-26T17:28:47.461Z,14.70
2022-09-26T17:31:20.265Z,14.60
2022-09-26T17:33:49.785Z,14.50
2022-09-26T17:36:28.050Z,14.50
2022-09-26T17:38:59.295Z,14.50
2022-09-26T17:41:28.038Z,14.40
2022-09-26T17:44:01.171Z,14.30
2022-09-26T17:46:28.700Z,14.20
2022-09-26T17:48:56.405Z,14.30
2022-09-26T17:51:24.172Z,14.30
2022-09-26T17:53:52.672Z,14.20
2022-09-26T17:56:20.077Z,14.30
2022-09-26T17:58:48.375Z,14.30
2022-09-26T18:01:33.855Z,14.20
2022-09-26T18:04:06.374Z,14.20
2022-09-26T18:06:33.733Z,14.10
2022-09-26T18:09:07.643Z,14.10
2022-09-26T18:11:36.330Z,14.10
2022-09-26T18:14:06.164Z,14.00
2022-09-26T18:16:33.086Z,14.00
2022-09-26T18:19:06.225Z,13.80
2022-09-26T18:21:34.394Z,13.80
2022-09-26T18:24:06.151Z,13.90
2022-09-26T18:26:47.406Z,13.90
2022-09-26T18:29:27.823Z,13.90
2022-09-26T18:31:55.363Z,14.00
2022-09-26T18:34:22.252Z,14.00
2022-09-26T18:36:50.102Z,13.90
2022-09-26T18:39:17.244Z,13.90
2022-09-26T18:41:45.315Z,13.90
2022-09-26T18:44:17.007Z,13.90
2022-09-26T18:46:46.900Z,13.90
2022-09-26T18:49:14.931Z,13.90
2022-09-26T18:51:42.337Z,13.80
2022-09-26T18:54:14.502Z,13.90
2022-09-26T18:57:00.948Z,13.90
2022-09-26T18:59:31.126Z,13.90
2022-09-26T19:02:00.167Z,13.80
2022-09-26T19:04:30.448Z,13.80
2022-09-26T19:07:02.062Z,13.80
2022-09-26T19:09:33.522Z,13.60
2022-09-26T19:12:01.586Z,13.70
2022-09-26T19:14:30.435Z,13.80
2022-09-26T19:16:58.209Z,13.70
2022-09-26T19:19:26.265Z,13.60
2022-09-26T19:21:54.770Z,13.60
2022-09-26T19:24:40.903Z,13.60
2022-09-26T19:27:27.911Z,13.50
2022-09-26T19:30:02.601Z,13.50
2022-09-26T19:32:32.652Z,13.50
2022-09-26T19:35:02.537Z,13.40
2022-09-26T19:37:29.433Z,13.40
2022-09-26T19:39:57.843Z,13.40
2022-09-26T19:42:26.216Z,13.50
2022-09-26T19:44:53.269Z,13.50
2022-09-26T19:47:23.364Z,13.40
2022-09-26T19:49:52.319Z,13.30
2022-09-26T19:52:21.001Z,13.30
2022-09-26T19:54:48.830Z,13.30
2022-09-26T19:57:17.649Z,13.20
2022-09-26T19:59:45.225Z,13.20
2022-09-26T20:02:20.891Z,13.10
2022-09-26T20:04:48.165Z,13.10
2022-09-26T20:07:17.365Z,13.20
2022-09-26T20:09:44.515Z,13.20
2022-09-26T20:12:11.745Z,13.20
2022-09-26T20:14:38.575Z,13.20
2022-09-26T20:17:22.753Z,13.10
2022-09-26T20:19:50.220Z,13.20
2022-09-26T20:22:20.340Z,13.10
2022-09-26T20:24:49.241Z,13.10
2022-09-26T20:27:22.297Z,13.00
2022-09-26T20:30:09.220Z,13.00
2022-09-26T20:32:36.568Z,13.00
2022-09-26T20:35:05.390Z,13.00
2022-09-26T20:37:36.294Z,13.00
2022-09-26T20:40:06.338Z,12.90
2022-09-26T20:42:37.944Z,12.90
2022-09-26T20:45:05.068Z,13.10
2022-09-26T20:47:31.943Z,13.10
2022-09-26T20:50:01.656Z,13.10
2022-09-26T20:52:29.976Z,13.10
2022-09-26T20:54:57.586Z,13.10
2022-09-26T20:57:25.000Z,13.00
2022-09-26T20:59:52.231Z,13.00
2022-09-26T21:02:33.078Z,12.90
2022-09-26T21:05:01.802Z,12.90
2022-09-26T21:07:31.180Z,12.80
2022-09-26T21:09:58.002Z,12.80
2022-09-26T21:12:25.172Z,12.80
2022-09-26T21:14:51.951Z,12.80
2022-09-26T21:17:24.174Z,12.90
2022-09-26T21:19:51.551Z,12.80
2022-09-26T21:22:25.378Z,12.80
2022-09-26T21:24:54.031Z,12.80
2022-09-26T21:27:20.952Z,12.90
2022-09-26T21:29:47.758Z,12.80
2022-09-26T21:32:20.854Z,12.80
2022-09-26T21:34:57.220Z,12.80
2022-09-26T21:37:24.029Z,12.70
2022-09-26T21:39:51.004Z,12.70
2022-09-26T21:42:17.771Z,12.70
2022-09-26T21:44:53.264Z,12.60
2022-09-26T21:47:20.110Z,12.60
2022-09-26T21:49:46.896Z,12.60
2022-09-26T21:52:19.499Z,12.60
2022-09-26T21:54:46.367Z,12.60
2022-09-26T21:57:20.753Z,12.60
2022-09-26T21:59:49.812Z,12.60
2022-09-26T22:02:17.016Z,12.60
2022-09-26T22:04:43.907Z,12.60
2022-09-26T22:07:10.712Z,12.60
2022-09-26T22:09:38.908Z,12.60
2022-09-26T22:12:05.730Z,12.60
2022-09-26T22:14:32.489Z,12.60
2022-09-26T22:16:59.837Z,12.60
2022-09-26T22:19:27.460Z,12.60
2022-09-26T22:21:54.691Z,12.50
2022-09-26T22:24:21.570Z,12.50
2022-09-26T22:26:48.287Z,12.60
2022-09-26T22:29:15.288Z,12.50
2022-09-26T22:31:42.686Z,12.50
2022-09-26T22:34:09.564Z,12.60
2022-09-26T22:36:36.630Z,12.50
2022-09-26T22:39:04.144Z,12.40
2022-09-26T22:41:30.855Z,12.40
2022-09-26T22:43:57.702Z,12.40
2022-09-26T22:46:24.539Z,12.30
2022-09-26T22:48:51.308Z,12.30
2022-09-26T22:51:18.530Z,12.30
2022-09-26T22:53:45.486Z,12.40
2022-09-26T22:56:13.766Z,12.40
2022-09-26T22:58:43.521Z,12.40
2022-09-26T23:01:13.734Z,12.30
2022-09-26T23:03:41.223Z,12.30
2022-09-26T23:06:09.171Z,12.40
2022-09-26T23:08:36.629Z,12.40
2022-09-26T23:11:04.855Z,12.40
2022-09-26T23:13:32.719Z,12.50
2022-09-26T23:16:05.714Z,12.40
2022-09-26T23:18:34.666Z,12.50
2022-09-26T23:21:06.445Z,12.50
2022-09-26T23:23:33.671Z,12.50
2022-09-26T23:26:00.657Z,12.50
2022-09-26T23:28:28.181Z,12.50
2022-09-26T23:30:55.000Z,12.40
2022-09-26T23:33:21.856Z,12.40
2022-09-26T23:35:57.667Z,12.40
2022-09-26T23:38:24.560Z,12.30
2022-09-26T23:40:51.851Z,12.40
2022-09-26T23:43:19.263Z,12.50
2022-09-26T23:45:46.205Z,12.50
2022-09-26T23:48:13.006Z,12.40
2022-09-26T23:50:39.998Z,12.40
2022-09-26T23:53:07.876Z,12.40
2022-09-26T23:55:34.841Z,12.30
2022-09-26T23:58:01.811Z,12.40
